KABY/ABY METAR and TAF weather

Enter ICAO airport designator
Station Type Date Time Source
KABY METAR 2020/09/25 06:53 UTC NOAA

KABY 250653Z AUTO 17004KT 10SM BKN011 OVC060 23/22 A2993 RMK AO2 SLP133 T02280222


Station Type Date Time Source
KABY Decoded METAR 2020/09/25 06:53 UTC NOAA

ALBANY SOUTHWEST GEORGIA, GA, United States (KABY) 31-32N 084-12W 58M
Sep 25, 2020 - 02:53 AM EDT / 2020.09.25 0653 UTC
Wind: from the S (170 degrees) at 5 MPH (4 KT):0
Visibility: 10 mile(s):0
Sky conditions: overcast
Temperature: 73.0 F (22.8 C)
Dew Point: 72.0 F (22.2 C)
Relative Humidity: 96%
Pressure (altimeter): 29.93 in. Hg (1013 hPa)
ob: KABY 250653Z AUTO 17004KT 10SM BKN011 OVC060 23/22 A2993 RMK AO2 SLP133 T02280222
cycle: 7

Station Type Date Time Source
KABY TAF 2020/09/25 06:30 UTC NOAA

TAF KABY 250527Z 2506/2606 17006KT P6SM VCSH BKN040
TEMPO 2506/2510 BKN030
FM251000 VRB03KT P6SM VCSH BKN025
FM251500 20005KT P6SM VCSH BKN020
TEMPO 2515/2518 4SM TSRA OVC015CB
FM251800 23005KT P6SM VCTS BKN030CB PROB30 2518/2521 4SM TSRA OVC025CB
FM252100 24004KT P6SM VCSH BKN070

Example: see airport list